createdAt,value
2023-02-27T00:00:15.199Z,81.78
2023-02-27T00:02:43.407Z,81.61
2023-02-27T00:05:10.742Z,81.87
2023-02-27T00:07:38.182Z,81.36
2023-02-27T00:10:06.004Z,81.35
2023-02-27T00:12:38.019Z,81.45
2023-02-27T00:15:06.159Z,81.43
2023-02-27T00:17:33.585Z,81.24
2023-02-27T00:20:00.580Z,81.24
2023-02-27T00:22:27.547Z,81.25
2023-02-27T00:24:54.755Z,81.49
2023-02-27T00:27:21.869Z,80.81
2023-02-27T00:29:49.048Z,80.38
2023-02-27T00:32:16.432Z,80.55
2023-02-27T00:34:43.919Z,79.93
2023-02-27T00:37:10.908Z,79.88
2023-02-27T00:39:37.936Z,79.92
2023-02-27T00:42:04.915Z,80.11
2023-02-27T00:44:32.037Z,79.92
2023-02-27T00:46:59.007Z,79.54
2023-02-27T00:49:26.364Z,78.95
2023-02-27T00:51:53.756Z,78.99
2023-02-27T00:54:20.865Z,80.05
2023-02-27T00:56:47.997Z,80.39
2023-02-27T00:59:14.896Z,80.73
2023-02-27T01:01:42.076Z,80.75
2023-02-27T01:04:09.140Z,81.17
2023-02-27T01:06:36.078Z,81.42
2023-02-27T01:09:04.308Z,81.21
2023-02-27T01:11:31.269Z,81.53
2023-02-27T01:14:00.243Z,80.49
2023-02-27T01:16:27.412Z,79.60
2023-02-27T01:18:54.434Z,79.96
2023-02-27T01:21:22.826Z,80.24
2023-02-27T01:23:49.783Z,80.40
2023-02-27T01:26:19.311Z,80.80
2023-02-27T01:28:46.599Z,80.72
2023-02-27T01:31:13.853Z,81.02
2023-02-27T01:33:40.867Z,80.98
2023-02-27T01:36:08.179Z,80.99
2023-02-27T01:38:35.583Z,80.50
2023-02-27T01:41:02.903Z,80.36
2023-02-27T01:43:33.017Z,80.37
2023-02-27T01:46:01.201Z,80.25
2023-02-27T01:48:33.855Z,80.58
2023-02-27T01:51:00.979Z,80.22
2023-02-27T01:53:29.231Z,80.38
2023-02-27T01:56:00.127Z,80.37
2023-02-27T01:58:27.336Z,79.95
2023-02-27T02:00:55.349Z,80.11
2023-02-27T02:03:22.252Z,80.17
2023-02-27T02:05:52.376Z,80.73
2023-02-27T02:08:21.384Z,81.02
2023-02-27T02:10:50.356Z,81.44
2023-02-27T02:13:18.306Z,81.67
2023-02-27T02:16:05.806Z,81.54
2023-02-27T02:18:51.590Z,81.70
2023-02-27T02:21:24.956Z,81.91
2023-02-27T02:23:56.944Z,82.07
2023-02-27T02:26:37.854Z,81.95
2023-02-27T02:29:04.733Z,81.90
2023-02-27T02:31:42.149Z,81.47
2023-02-27T02:34:27.914Z,81.95
2023-02-27T02:37:17.590Z,81.88
2023-02-27T02:39:48.590Z,82.02
2023-02-27T02:42:19.086Z,81.99
2023-02-27T02:44:52.279Z,81.54
2023-02-27T02:47:19.402Z,82.00
2023-02-27T02:50:06.565Z,81.71
2023-02-27T02:52:39.700Z,81.62
2023-02-27T02:55:17.313Z,82.08
2023-02-27T02:58:03.841Z,81.46
2023-02-27T03:00:38.183Z,81.59
2023-02-27T03:03:15.037Z,81.74
2023-02-27T03:05:46.811Z,81.58
2023-02-27T03:08:26.906Z,81.63
2023-02-27T03:11:03.656Z,81.55
2023-02-27T03:13:33.531Z,81.56
2023-02-27T03:16:15.962Z,81.72
2023-02-27T03:19:06.236Z,81.59
2023-02-27T03:21:42.416Z,81.44
2023-02-27T03:24:12.884Z,81.65
2023-02-27T03:26:42.628Z,81.61
2023-02-27T03:29:13.356Z,81.79
2023-02-27T03:31:40.394Z,82.01
2023-02-27T03:34:12.779Z,82.07
2023-02-27T03:36:44.868Z,81.57
2023-02-27T03:39:27.855Z,81.48
2023-02-27T03:41:54.813Z,81.95
2023-02-27T03:45:00.389Z,82.33
2023-02-27T03:47:28.264Z,81.69
2023-02-27T03:49:56.101Z,81.65
2023-02-27T03:52:23.992Z,82.14
2023-02-27T03:54:57.168Z,81.79
2023-02-27T03:57:24.498Z,82.03
2023-02-27T03:59:51.606Z,81.96
2023-02-27T04:02:18.793Z,82.11
2023-02-27T04:04:45.926Z,81.93
2023-02-27T04:07:40.699Z,82.37
2023-02-27T04:10:26.565Z,82.26
2023-02-27T04:12:53.536Z,82.65
2023-02-27T04:15:29.258Z,82.97
2023-02-27T04:18:05.636Z,82.60
2023-02-27T04:20:48.575Z,82.75
2023-02-27T04:23:15.892Z,82.70
2023-02-27T04:25:49.112Z,83.19
2023-02-27T04:28:17.703Z,83.86
2023-02-27T04:30:49.349Z,83.20
2023-02-27T04:33:23.779Z,83.98
2023-02-27T04:35:53.418Z,83.73
2023-02-27T04:38:23.243Z,83.83
2023-02-27T04:40:56.818Z,83.75
2023-02-27T04:43:27.592Z,83.62
2023-02-27T04:45:57.002Z,83.50
2023-02-27T04:48:30.472Z,83.48
2023-02-27T04:51:15.681Z,84.07
2023-02-27T04:53:48.736Z,84.14
2023-02-27T04:56:23.280Z,84.56
2023-02-27T04:58:52.944Z,84.59
2023-02-27T05:01:36.069Z,84.95
2023-02-27T05:04:05.496Z,85.12
2023-02-27T05:06:35.449Z,84.70
2023-02-27T05:09:10.167Z,84.57
2023-02-27T05:11:45.313Z,84.12
2023-02-27T05:14:20.922Z,83.98
2023-02-27T05:16:54.362Z,84.39
2023-02-27T05:19:21.774Z,83.96
2023-02-27T05:21:48.654Z,84.32
2023-02-27T05:24:18.609Z,84.83
2023-02-27T05:26:48.756Z,84.87
2023-02-27T05:29:35.925Z,84.80
2023-02-27T05:32:13.187Z,84.43
2023-02-27T05:34:44.883Z,85.29
2023-02-27T05:37:15.126Z,85.44
2023-02-27T05:39:43.670Z,85.27
2023-02-27T05:42:14.186Z,85.71
2023-02-27T05:44:44.656Z,85.91
2023-02-27T05:47:13.985Z,85.23
2023-02-27T05:49:43.574Z,85.26
2023-02-27T05:52:12.441Z,85.72
2023-02-27T05:54:44.913Z,85.75
2023-02-27T05:57:15.815Z,85.30
2023-02-27T06:00:03.363Z,85.45
2023-02-27T06:02:39.225Z,85.75
2023-02-27T06:05:07.997Z,85.27
2023-02-27T06:07:35.333Z,85.10
2023-02-27T06:10:02.687Z,85.05
2023-02-27T06:12:30.842Z,85.36
2023-02-27T06:14:57.972Z,85.32
2023-02-27T06:17:24.968Z,85.90
2023-02-27T06:19:52.288Z,85.62
2023-02-27T06:22:19.299Z,85.50
2023-02-27T06:24:46.380Z,85.38
2023-02-27T06:27:13.405Z,85.42
2023-02-27T06:29:40.614Z,84.85
2023-02-27T06:32:07.708Z,84.88
2023-02-27T06:34:34.757Z,84.46
2023-02-27T06:37:04.154Z,84.62
2023-02-27T06:39:31.598Z,84.93
2023-02-27T06:42:00.094Z,85.03
2023-02-27T06:44:27.046Z,84.43
2023-02-27T06:46:54.040Z,84.48
2023-02-27T06:49:21.313Z,84.17
2023-02-27T06:51:48.411Z,83.77
2023-02-27T06:54:15.717Z,83.68
2023-02-27T06:56:42.683Z,83.03
2023-02-27T06:59:09.695Z,83.13
2023-02-27T07:01:37.236Z,82.91
2023-02-27T07:04:04.348Z,82.96
2023-02-27T07:07:33.394Z,83.33
2023-02-27T07:09:18.311Z,83.03
2023-02-27T07:11:45.623Z,83.00
2023-02-27T07:14:12.804Z,82.94
2023-02-27T07:16:41.087Z,82.04
2023-02-27T07:19:08.819Z,81.86
2023-02-27T07:21:35.822Z,81.49
2023-02-27T07:24:05.061Z,81.05
2023-02-27T07:26:32.230Z,81.51
2023-02-27T07:29:00.529Z,81.51
2023-02-27T07:31:28.969Z,80.86
2023-02-27T07:33:56.174Z,80.98
2023-02-27T07:36:23.582Z,80.89
2023-02-27T07:38:50.617Z,80.80
2023-02-27T07:41:29.910Z,81.46
2023-02-27T07:43:59.945Z,80.72
2023-02-27T07:46:28.085Z,80.91
2023-02-27T07:48:55.613Z,80.80
2023-02-27T07:51:22.679Z,80.64
2023-02-27T07:53:49.620Z,80.18
2023-02-27T07:56:16.637Z,80.65
2023-02-27T07:58:43.765Z,81.12
2023-02-27T08:01:10.734Z,80.96
2023-02-27T08:03:37.813Z,81.55
2023-02-27T08:06:04.877Z,82.36
2023-02-27T08:08:31.982Z,81.54
2023-02-27T08:10:59.021Z,81.15
2023-02-27T08:13:55.651Z,80.80
2023-02-27T08:16:13.605Z,81.33
2023-02-27T08:18:40.646Z,80.59
2023-02-27T08:21:07.796Z,81.00
2023-02-27T08:23:34.728Z,79.99
2023-02-27T08:26:02.491Z,80.19
2023-02-27T08:28:29.802Z,79.63
2023-02-27T08:30:58.217Z,79.62
2023-02-27T08:33:25.368Z,79.86
2023-02-27T08:35:54.620Z,79.34
2023-02-27T08:38:21.908Z,79.18
2023-02-27T08:40:50.281Z,79.51
2023-02-27T08:43:17.337Z,79.60
2023-02-27T08:45:44.453Z,79.29
2023-02-27T08:48:14.296Z,78.80
2023-02-27T08:50:42.321Z,77.46
2023-02-27T08:53:12.515Z,77.75
2023-02-27T08:55:39.438Z,77.89
2023-02-27T08:58:06.547Z,77.60
2023-02-27T09:00:33.519Z,78.15
2023-02-27T09:03:01.545Z,77.94
2023-02-27T09:05:28.841Z,77.69
2023-02-27T09:07:56.069Z,78.32
2023-02-27T09:10:23.321Z,77.83
2023-02-27T09:12:50.349Z,77.70
2023-02-27T09:15:17.370Z,77.85
2023-02-27T09:17:44.349Z,76.86
2023-02-27T09:20:12.313Z,77.36
2023-02-27T09:22:39.802Z,77.51
2023-02-27T09:25:07.034Z,78.05
2023-02-27T09:27:35.017Z,78.24
2023-02-27T09:30:02.140Z,77.60
2023-02-27T09:32:30.626Z,77.70
2023-02-27T09:34:58.711Z,77.96
2023-02-27T09:37:26.189Z,78.10
2023-02-27T09:39:53.402Z,77.99
2023-02-27T09:42:29.118Z,77.82
2023-02-27T09:44:57.908Z,77.76
2023-02-27T09:47:31.160Z,77.96
2023-02-27T09:50:00.577Z,78.78
2023-02-27T09:52:28.571Z,78.94
2023-02-27T09:54:55.761Z,78.96
2023-02-27T09:57:41.353Z,79.74
2023-02-27T10:00:15.837Z,79.13
2023-02-27T10:02:59.099Z,79.20
2023-02-27T10:05:49.471Z,79.00
2023-02-27T10:08:19.404Z,78.51
2023-02-27T10:11:01.217Z,78.14
2023-02-27T10:13:37.293Z,77.10
2023-02-27T10:16:05.367Z,76.98
2023-02-27T10:18:35.949Z,76.71
2023-02-27T10:21:06.228Z,76.27
2023-02-27T10:23:39.619Z,75.74
2023-02-27T10:26:08.154Z,76.20
2023-02-27T10:28:35.421Z,76.93
2023-02-27T10:31:02.750Z,77.76
2023-02-27T10:33:33.260Z,78.32
2023-02-27T10:36:02.155Z,78.02
2023-02-27T10:38:30.372Z,78.50
2023-02-27T10:40:58.311Z,78.86
2023-02-27T10:43:25.622Z,78.28
2023-02-27T10:45:53.593Z,79.00
2023-02-27T10:48:21.025Z,77.82
2023-02-27T10:50:52.468Z,77.94
2023-02-27T10:53:19.834Z,78.63
2023-02-27T10:55:56.260Z,78.73
2023-02-27T10:58:23.452Z,78.75
2023-02-27T11:00:58.192Z,78.55
2023-02-27T11:03:30.059Z,79.16
2023-02-27T11:06:02.912Z,78.98
2023-02-27T11:08:32.275Z,79.09
2023-02-27T11:11:01.286Z,80.25
2023-02-27T11:13:30.791Z,80.81
2023-02-27T11:16:12.932Z,80.63
2023-02-27T11:18:41.388Z,79.85
2023-02-27T11:21:20.637Z,80.66
2023-02-27T11:23:55.949Z,81.46
2023-02-27T11:29:20.727Z,80.05
2023-02-27T11:32:01.561Z,79.16
2023-02-27T11:34:39.580Z,77.78
2023-02-27T11:37:08.885Z,78.12
2023-02-27T11:39:39.470Z,77.33
2023-02-27T11:42:17.353Z,78.18
2023-02-27T11:44:56.240Z,78.26
2023-02-27T11:47:27.494Z,79.37
2023-02-27T11:50:16.020Z,80.48
2023-02-27T11:52:54.771Z,81.06
2023-02-27T11:55:27.999Z,82.16
2023-02-27T11:57:59.869Z,82.77
2023-02-27T12:00:47.538Z,83.81
2023-02-27T12:03:32.345Z,82.67
2023-02-27T12:06:13.171Z,82.50
2023-02-27T12:08:46.864Z,82.65
2023-02-27T12:11:21.497Z,81.16
2023-02-27T12:13:57.408Z,80.79
2023-02-27T12:16:28.109Z,80.68
2023-02-27T12:22:06.806Z,80.70
2023-02-27T12:25:07.602Z,80.57
2023-02-27T12:27:37.961Z,80.06
2023-02-27T12:30:13.991Z,80.20
2023-02-27T12:32:44.113Z,80.31
2023-02-27T12:35:17.755Z,80.65
2023-02-27T12:37:44.894Z,81.09
2023-02-27T12:40:14.910Z,80.76
2023-02-27T12:42:52.600Z,80.15
2023-02-27T12:45:22.728Z,79.62
2023-02-27T12:48:05.465Z,79.42
2023-02-27T12:50:44.868Z,79.83
2023-02-27T12:53:30.681Z,78.36
2023-02-27T12:58:49.504Z,76.88
2023-02-27T13:01:16.672Z,75.34
2023-02-27T13:03:46.995Z,75.06
2023-02-27T13:06:37.423Z,74.25
2023-02-27T13:09:04.490Z,74.62
2023-02-27T13:11:38.088Z,74.09
2023-02-27T13:14:17.115Z,74.25
2023-02-27T13:16:47.161Z,74.44
2023-02-27T13:19:35.589Z,75.28
2023-02-27T13:22:22.231Z,76.16
2023-02-27T13:24:55.585Z,75.48
2023-02-27T13:27:29.253Z,75.81
2023-02-27T13:30:14.934Z,75.87
2023-02-27T13:32:44.405Z,75.50
2023-02-27T13:35:12.642Z,75.16
2023-02-27T13:38:03.818Z,75.68
2023-02-27T13:40:39.712Z,76.22
2023-02-27T13:43:28.554Z,76.22
2023-02-27T13:45:57.510Z,76.76
2023-02-27T13:48:33.762Z,76.81
2023-02-27T13:53:42.926Z,76.76
2023-02-27T13:56:23.846Z,77.76
2023-02-27T13:58:51.859Z,78.91
2023-02-27T14:01:22.913Z,77.92
2023-02-27T14:04:04.911Z,77.21
2023-02-27T14:06:32.681Z,78.03
2023-02-27T14:09:14.491Z,78.38
2023-02-27T14:12:01.571Z,78.73
2023-02-27T14:25:56.322Z,79.21
2023-02-27T14:28:27.502Z,79.41
2023-02-27T14:30:59.340Z,79.71
2023-02-27T14:33:40.411Z,79.99
2023-02-27T14:36:22.213Z,79.65
2023-02-27T14:38:50.987Z,79.60
2023-02-27T14:41:37.418Z,79.06
2023-02-27T14:44:05.103Z,79.04
2023-02-27T14:46:35.504Z,79.38
2023-02-27T14:49:19.250Z,78.87
2023-02-27T14:51:48.933Z,77.87
2023-02-27T14:54:18.568Z,78.53
2023-02-27T14:56:56.079Z,78.91
2023-02-27T14:59:35.868Z,79.11
2023-02-27T15:02:04.754Z,79.72
2023-02-27T15:04:33.532Z,79.40
2023-02-27T15:07:02.390Z,79.62
2023-02-27T15:09:32.812Z,79.68
2023-02-27T15:12:04.601Z,79.58
2023-02-27T15:14:37.214Z,80.09
2023-02-27T15:17:06.479Z,80.21
2023-02-27T15:22:19.634Z,80.18
2023-02-27T15:24:54.650Z,80.62
2023-02-27T15:27:24.323Z,80.96
2023-02-27T15:29:55.501Z,80.48
2023-02-27T15:32:32.009Z,80.59
2023-02-27T15:35:01.440Z,80.69
2023-02-27T15:37:33.073Z,80.24
2023-02-27T15:40:01.856Z,80.99
2023-02-27T15:42:31.055Z,80.54
2023-02-27T15:44:58.787Z,80.01
2023-02-27T15:47:27.075Z,79.75
2023-02-27T15:49:56.633Z,79.26
2023-02-27T15:52:25.516Z,79.30
2023-02-27T15:54:52.842Z,80.31
2023-02-27T15:57:23.816Z,81.02
2023-02-27T15:59:55.506Z,81.71
2023-02-27T16:02:24.743Z,81.97
2023-02-27T16:04:52.354Z,82.37
2023-02-27T16:07:21.855Z,82.66
2023-02-27T16:10:01.076Z,82.37
2023-02-27T16:12:37.169Z,81.65
2023-02-27T16:15:20.856Z,82.10
2023-02-27T16:17:54.205Z,81.64
2023-02-27T16:20:29.487Z,81.82
2023-02-27T16:23:07.502Z,81.43
2023-02-27T16:25:34.680Z,81.69
2023-02-27T16:28:02.065Z,82.16
2023-02-27T16:30:29.253Z,83.15
2023-02-27T16:33:02.181Z,82.46
2023-02-27T16:35:29.713Z,83.03
2023-02-27T16:38:11.882Z,82.83
2023-02-27T16:40:39.357Z,82.17
2023-02-27T16:43:06.486Z,82.44
2023-02-27T16:45:36.170Z,82.62
2023-02-27T16:48:05.526Z,82.30
2023-02-27T16:50:34.241Z,82.29
2023-02-27T16:53:01.525Z,82.52
2023-02-27T16:55:29.461Z,82.13
2023-02-27T16:57:57.183Z,82.13
2023-02-27T17:00:24.327Z,82.77
2023-02-27T17:02:51.510Z,82.74
2023-02-27T17:05:18.986Z,82.18
2023-02-27T17:07:57.672Z,82.11
2023-02-27T17:10:25.873Z,82.63
2023-02-27T17:12:53.945Z,83.62
2023-02-27T17:15:21.460Z,82.98
2023-02-27T17:17:49.018Z,82.79
2023-02-27T17:20:26.408Z,83.37
2023-02-27T17:22:53.770Z,82.98
2023-02-27T17:25:21.410Z,82.87
2023-02-27T17:27:53.408Z,82.60
2023-02-27T17:30:20.608Z,81.76
2023-02-27T17:32:47.655Z,82.95
2023-02-27T17:35:15.086Z,81.39
2023-02-27T17:37:42.345Z,81.47
2023-02-27T17:40:09.909Z,81.87
2023-02-27T17:42:37.319Z,81.51
2023-02-27T17:45:11.724Z,81.85
2023-02-27T17:47:44.436Z,80.45
2023-02-27T17:50:14.719Z,79.37
2023-02-27T17:52:42.148Z,78.31
2023-02-27T17:55:09.936Z,79.55
2023-02-27T17:57:40.382Z,79.51
2023-02-27T18:00:14.807Z,79.26
2023-02-27T18:02:44.229Z,79.60
2023-02-27T18:05:16.928Z,77.43
2023-02-27T18:07:45.016Z,76.72
2023-02-27T18:10:17.863Z,76.76
2023-02-27T18:12:47.594Z,76.22
2023-02-27T18:15:15.659Z,76.81
2023-02-27T18:17:43.810Z,76.15
2023-02-27T18:20:14.721Z,76.88
2023-02-27T18:22:44.809Z,77.21
2023-02-27T18:25:12.082Z,77.59
2023-02-27T18:27:39.986Z,77.70
2023-02-27T18:30:07.419Z,78.48
2023-02-27T18:32:34.927Z,78.17
2023-02-27T18:35:03.125Z,79.30
2023-02-27T18:37:30.591Z,79.57
2023-02-27T18:39:57.786Z,79.47
2023-02-27T18:42:24.886Z,79.56
2023-02-27T18:44:52.007Z,80.04
2023-02-27T18:47:20.598Z,79.90
2023-02-27T18:49:47.830Z,79.77
2023-02-27T18:52:15.037Z,79.49
2023-02-27T18:54:43.614Z,79.76
2023-02-27T18:57:10.975Z,80.15
2023-02-27T18:59:38.340Z,80.40
2023-02-27T19:02:05.413Z,80.46
2023-02-27T19:04:58.523Z,80.55
2023-02-27T19:07:56.123Z,80.31
2023-02-27T19:10:35.257Z,80.76
2023-02-27T19:13:02.476Z,80.59
2023-02-27T19:15:29.618Z,80.86
2023-02-27T19:17:57.348Z,81.04
2023-02-27T19:20:24.730Z,81.00
2023-02-27T19:22:53.747Z,81.14
2023-02-27T19:25:22.391Z,81.28
2023-02-27T19:27:58.829Z,81.52
2023-02-27T19:30:28.384Z,82.24
2023-02-27T19:32:56.050Z,82.19
2023-02-27T19:35:24.772Z,81.80
2023-02-27T19:37:57.480Z,82.11
2023-02-27T19:40:26.096Z,82.21
2023-02-27T19:42:53.178Z,82.52
2023-02-27T19:45:20.797Z,82.70
2023-02-27T19:47:47.893Z,82.61
2023-02-27T19:50:15.180Z,82.77
2023-02-27T19:52:42.614Z,83.26
2023-02-27T19:55:09.724Z,83.36
2023-02-27T19:57:37.285Z,83.16
2023-02-27T20:00:06.762Z,83.20
2023-02-27T20:02:40.586Z,83.18
2023-02-27T20:05:12.254Z,83.86
2023-02-27T20:07:42.089Z,83.72
2023-02-27T20:10:09.907Z,83.68
2023-02-27T20:12:37.036Z,84.41
2023-02-27T20:15:09.021Z,83.58
2023-02-27T20:17:36.106Z,83.51
2023-02-27T20:20:05.996Z,83.41
2023-02-27T20:22:33.082Z,83.39
2023-02-27T20:25:00.625Z,83.81
2023-02-27T20:27:28.827Z,82.83
2023-02-27T20:29:56.858Z,82.88
2023-02-27T20:32:24.838Z,83.72
2023-02-27T20:35:12.544Z,84.34
2023-02-27T20:37:40.199Z,84.25
2023-02-27T20:40:08.764Z,83.83
2023-02-27T20:42:36.781Z,84.70
2023-02-27T20:45:04.270Z,84.56
2023-02-27T20:47:31.500Z,84.91
2023-02-27T20:50:00.499Z,84.85
2023-02-27T20:52:27.632Z,85.16
2023-02-27T20:54:55.819Z,84.78
2023-02-27T20:57:23.047Z,85.68
2023-02-27T20:59:50.624Z,85.73
2023-02-27T21:02:17.813Z,85.42
2023-02-27T21:04:47.621Z,85.28
2023-02-27T21:07:17.810Z,85.73
2023-02-27T21:09:45.330Z,85.55
2023-02-27T21:12:12.944Z,85.27
2023-02-27T21:14:41.937Z,85.78
2023-02-27T21:17:11.010Z,85.89
2023-02-27T21:19:40.114Z,86.49
2023-02-27T21:22:11.239Z,87.33
2023-02-27T21:24:38.661Z,87.20
2023-02-27T21:27:05.987Z,87.46
2023-02-27T21:29:33.756Z,87.24
2023-02-27T21:32:01.727Z,88.40
2023-02-27T21:34:29.171Z,88.93
2023-02-27T21:36:56.512Z,88.34
2023-02-27T21:39:25.639Z,88.54
2023-02-27T21:41:52.901Z,89.09
2023-02-27T21:44:21.538Z,88.92
2023-02-27T21:46:48.653Z,89.08
2023-02-27T21:49:20.524Z,89.02
2023-02-27T21:51:47.829Z,89.46
2023-02-27T21:54:15.559Z,89.26
2023-02-27T21:56:43.452Z,90.05
2023-02-27T21:59:10.549Z,90.14
2023-02-27T22:01:38.031Z,90.41
2023-02-27T22:04:05.860Z,90.64
2023-02-27T22:06:33.980Z,90.21
2023-02-27T22:09:03.170Z,90.07
2023-02-27T22:11:31.062Z,89.49
2023-02-27T22:13:58.321Z,89.38
2023-02-27T22:16:25.336Z,89.41
2023-02-27T22:18:52.421Z,89.96
2023-02-27T22:21:21.267Z,90.12
2023-02-27T22:23:48.489Z,90.09
2023-02-27T22:26:17.174Z,90.39
2023-02-27T22:28:44.440Z,90.23
2023-02-27T22:31:18.899Z,90.95
2023-02-27T22:33:48.695Z,90.80
2023-02-27T22:36:17.300Z,91.18
2023-02-27T22:38:44.475Z,90.67
2023-02-27T22:41:15.981Z,90.87
2023-02-27T22:43:45.082Z,91.49
2023-02-27T22:46:16.425Z,91.42
2023-02-27T22:48:43.492Z,91.41
2023-02-27T22:51:12.910Z,91.99
2023-02-27T22:53:40.550Z,91.90
2023-02-27T22:56:11.671Z,91.95
2023-02-27T22:58:39.456Z,92.46
2023-02-27T23:01:09.609Z,92.70
2023-02-27T23:03:37.566Z,92.32
2023-02-27T23:06:05.683Z,92.18
2023-02-27T23:08:32.708Z,92.50
2023-02-27T23:10:59.932Z,91.93
2023-02-27T23:13:27.350Z,92.35
2023-02-27T23:15:54.977Z,92.17
2023-02-27T23:18:22.016Z,92.77
2023-02-27T23:20:48.985Z,92.14
2023-02-27T23:23:16.376Z,92.21
2023-02-27T23:25:43.675Z,91.94
2023-02-27T23:28:11.122Z,91.90
2023-02-27T23:30:38.248Z,91.85
2023-02-27T23:33:05.271Z,92.09
2023-02-27T23:35:32.364Z,92.08
2023-02-27T23:38:00.754Z,91.89
2023-02-27T23:40:27.779Z,92.07
2023-02-27T23:42:54.821Z,92.44
2023-02-27T23:45:25.000Z,92.48
2023-02-27T23:47:56.808Z,92.27
2023-02-27T23:50:28.733Z,92.56
2023-02-27T23:52:56.723Z,92.95
2023-02-27T23:55:24.031Z,93.20
2023-02-27T23:57:54.694Z,93.14
